»·PEaware :: UAL576 KLAX-KDEN

UAL576 :: KLAX-KDEN

FLIGHT INFORMATION

Flight Status: Arrived
Operator:
United Airlines
More flights by this operator :: More flights under this callsign
Pilot: Anonymous 8274 (8274)
Aircraft: BOEING 737-300
(B733)
More flights by this aircraft type
Origin: KLAX Los Angeles Intl
United States
Destination: KDEN Denver Intl
United States
More flights between these airports :: More routes between these airports
Route: ORCKA3 LAS J76 CORKR DICEE J146 HBU CREDE3
File this flight plan on PilotEdge
Remarks:
Altitude:
(Current/Filed)
31,000ft
Speed:
(Current/Filed)
460kts
Departed: 06-Jul-18 04:51 PM
Arrived: 06-Jul-18 06:55 PM
Distance/Time
Traveled:
747nm/2:04
Distance/Time
To Go:
Arrived

Flight Plot

Page will automatically refresh every two minutes.

Flight plan parsing failed; only flown route is shown


Map Options




Map Legend


Flown Route
Filed Route
Departure Airport
Arrival Airport
Navaid (VOR, NDB)
Fix

Horizontal Profiles

Position Reports

Time Latitude Longitude Heading Altitude Ground
Speed
06-Jul-18 16:12 33.941305 -118.402572 69 110ft 0kts
06-Jul-18 16:13 33.941305 -118.402572 70 110ft 0kts
06-Jul-18 16:14 33.941305 -118.402572 69 110ft 0kts
06-Jul-18 16:15 33.941305 -118.402572 70 110ft 0kts
06-Jul-18 16:16 33.941305 -118.402572 69 110ft 0kts
06-Jul-18 16:17 33.941305 -118.402572 69 110ft 0kts
06-Jul-18 16:18 33.941305 -118.402572 69 110ft 0kts
06-Jul-18 16:19 33.941305 -118.402572 69 110ft 0kts
06-Jul-18 16:20 33.941305 -118.402572 69 110ft 0kts
06-Jul-18 16:21 33.941305 -118.402572 69 110ft 0kts
06-Jul-18 16:22 33.941305 -118.402572 69 110ft 0kts
06-Jul-18 16:23 33.941305 -118.402572 69 110ft 0kts
06-Jul-18 16:24 33.941305 -118.402572 69 110ft 0kts
06-Jul-18 16:25 33.941305 -118.402572 69 110ft 0kts
06-Jul-18 16:26 33.941305 -118.402572 69 110ft 0kts
06-Jul-18 16:27 33.941305 -118.402572 69 110ft 0kts
06-Jul-18 16:28 33.941305 -118.402572 70 110ft 0kts
06-Jul-18 16:29 33.941305 -118.402572 69 110ft 0kts
06-Jul-18 16:30 33.941274 -118.402676 69 110ft 2kts
06-Jul-18 16:31 33.941388 -118.403257 168 110ft 0kts
06-Jul-18 16:32 33.941470 -118.403267 172 110ft 0kts
06-Jul-18 16:33 33.941470 -118.403267 172 110ft 0kts
06-Jul-18 16:34 33.941470 -118.403267 172 110ft 0kts
06-Jul-18 16:35 33.941470 -118.403267 172 110ft 0kts
06-Jul-18 16:36 33.941470 -118.403267 172 110ft 0kts
06-Jul-18 16:37 33.941435 -118.403262 172 110ft 0kts
06-Jul-18 16:38 33.940550 -118.403143 172 110ft 6kts
06-Jul-18 16:39 33.940361 -118.403105 171 110ft 0kts
06-Jul-18 16:40 33.940361 -118.403105 171 110ft 0kts
06-Jul-18 16:41 33.940361 -118.403105 171 110ft 0kts
06-Jul-18 16:42 33.939709 -118.402992 167 110ft 7kts
06-Jul-18 16:43 33.939695 -118.399048 83 110ft 16kts
06-Jul-18 16:44 33.939425 -118.394986 131 110ft 8kts
06-Jul-18 16:45 33.939784 -118.390198 83 110ft 20kts
06-Jul-18 16:46 33.940552 -118.382659 83 110ft 25kts
06-Jul-18 16:47 33.940728 -118.380125 132 110ft 0kts
06-Jul-18 16:48 33.940728 -118.380125 132 110ft 0kts
06-Jul-18 16:49 33.940728 -118.380125 132 110ft 0kts
06-Jul-18 16:50 33.940728 -118.380125 132 110ft 0kts
06-Jul-18 16:51 33.940619 -118.380029 157 110ft 1kts
06-Jul-18 16:52 33.939411 -118.384450 262 110ft 74kts
06-Jul-18 16:53 33.934402 -118.428054 261 1034ft 154kts
06-Jul-18 16:54 33.927918 -118.490052 263 2595ft 220kts
06-Jul-18 16:54 33.909365 -118.549992 247 4698ft 247kts
06-Jul-18 16:55 33.872257 -118.624887 205 7165ft 278kts
06-Jul-18 16:56 33.812446 -118.586626 100 10057ft 290kts
06-Jul-18 16:57 33.854656 -118.505825 37 12170ft 329kts
06-Jul-18 16:58 33.936579 -118.436302 37 12978ft 373kts
06-Jul-18 16:59 34.013539 -118.358016 66 13977ft 372kts
06-Jul-18 17:00 34.039824 -118.236856 64 16107ft 385kts
06-Jul-18 17:01 34.100585 -118.128895 57 18025ft 399kts
06-Jul-18 17:02 34.164919 -118.018490 56 19807ft 411kts
06-Jul-18 17:03 34.231686 -117.904521 56 21526ft 423kts
06-Jul-18 17:04 34.300133 -117.787615 56 23133ft 433kts
06-Jul-18 17:05 34.373153 -117.669039 41 24423ft 451kts
06-Jul-18 17:06 34.465637 -117.570184 56 25744ft 455kts
06-Jul-18 17:07 34.533467 -117.441359 63 27496ft 451kts
06-Jul-18 17:08 34.593306 -117.310761 63 29230ft 448kts
06-Jul-18 17:09 34.653636 -117.179715 63 30840ft 444kts
06-Jul-18 17:10 34.722344 -117.053569 53 31042ft 459kts
06-Jul-18 17:11 34.801916 -116.933154 55 30978ft 461kts
06-Jul-18 17:12 34.879025 -116.809696 55 30967ft 463kts
06-Jul-18 17:13 34.958062 -116.686548 49 30968ft 467kts
06-Jul-18 17:14 35.048210 -116.572277 48 31020ft 469kts
06-Jul-18 17:15 35.138288 -116.458866 48 31017ft 469kts
06-Jul-18 17:16 35.220732 -116.355663 48 31023ft 470kts
06-Jul-18 17:17 35.308279 -116.243262 50 31023ft 469kts
06-Jul-18 17:18 35.395823 -116.125585 50 31022ft 470kts
06-Jul-18 17:19 35.483343 -116.007841 50 31023ft 470kts
06-Jul-18 17:20 35.570975 -115.889926 50 31023ft 471kts
06-Jul-18 17:21 35.658909 -115.771621 50 31023ft 471kts
06-Jul-18 17:22 35.746786 -115.653299 50 31023ft 472kts
06-Jul-18 17:23 35.834976 -115.534497 50 30985ft 473kts
06-Jul-18 17:24 35.919158 -115.411589 53 30967ft 471kts
06-Jul-18 17:25 36.000495 -115.290169 53 31023ft 471kts
06-Jul-18 17:26 36.082815 -115.165117 61 30956ft 468kts
06-Jul-18 17:27 36.105336 -115.015437 92 30973ft 452kts
06-Jul-18 17:28 36.098694 -114.862188 100 30940ft 446kts
06-Jul-18 17:30 36.086269 -114.710987 100 30968ft 435kts
06-Jul-18 17:31 36.072360 -114.560121 102 30975ft 447kts
06-Jul-18 17:32 36.058445 -114.408383 93 30967ft 452kts
06-Jul-18 17:33 36.061127 -114.256014 93 30970ft 452kts
06-Jul-18 17:34 36.064194 -114.100753 93 30967ft 452kts
06-Jul-18 17:35 36.067369 -113.946414 92 30995ft 452kts
06-Jul-18 17:36 36.070743 -113.791349 92 31108ft 452kts
06-Jul-18 17:37 36.074240 -113.637659 92 31131ft 451kts
06-Jul-18 17:38 36.077875 -113.483570 92 31131ft 451kts
06-Jul-18 17:39 36.081497 -113.334923 92 31106ft 452kts
06-Jul-18 17:40 36.085317 -113.183517 92 31131ft 452kts
06-Jul-18 17:41 36.087760 -113.029957 95 31131ft 450kts
06-Jul-18 17:42 36.085478 -112.877182 95 31131ft 450kts
06-Jul-18 17:43 36.082105 -112.724641 95 31145ft 459kts
06-Jul-18 17:44 36.073543 -112.566967 95 31354ft 465kts
06-Jul-18 17:45 36.064818 -112.408931 95 31403ft 465kts
06-Jul-18 17:46 36.100268 -112.266760 41 31379ft 471kts
06-Jul-18 17:47 36.209930 -112.178386 23 31403ft 474kts
06-Jul-18 17:48 36.331419 -112.116005 22 31401ft 475kts
06-Jul-18 17:49 36.442006 -112.029871 38 31402ft 471kts
06-Jul-18 17:50 36.542271 -111.926536 41 31401ft 471kts
06-Jul-18 17:51 36.642027 -111.821652 40 31379ft 472kts
06-Jul-18 17:52 36.742546 -111.718610 40 31181ft 470kts
06-Jul-18 17:53 36.843265 -111.616159 40 31185ft 471kts
06-Jul-18 17:54 36.944061 -111.513484 40 31184ft 471kts
06-Jul-18 17:55 37.044918 -111.410630 40 31185ft 471kts
06-Jul-18 17:56 37.140500 -111.313184 40 31168ft 470kts
06-Jul-18 17:57 37.235773 -111.204961 61 31179ft 465kts
06-Jul-18 17:58 37.278956 -111.053816 75 31187ft 462kts
06-Jul-18 17:59 37.316916 -110.901124 75 31184ft 462kts
06-Jul-18 18:00 37.351495 -110.742665 75 31193ft 476kts
06-Jul-18 18:01 37.383199 -110.582506 71 31181ft 474kts
06-Jul-18 18:02 37.426382 -110.426405 68 31274ft 473kts
06-Jul-18 18:03 37.467879 -110.278709 69 31429ft 473kts
06-Jul-18 18:04 37.511258 -110.123698 69 31428ft 472kts
06-Jul-18 18:05 37.552779 -109.966972 70 31418ft 475kts
06-Jul-18 18:06 37.589986 -109.807954 70 31431ft 475kts
06-Jul-18 18:07 37.626990 -109.649509 70 31428ft 474kts
06-Jul-18 18:08 37.664082 -109.490879 70 31428ft 473kts
06-Jul-18 18:09 37.699750 -109.339143 70 31449ft 455kts
06-Jul-18 18:10 37.737469 -109.184099 67 31425ft 471kts
06-Jul-18 18:11 37.780518 -109.028922 67 31429ft 470kts
06-Jul-18 18:12 37.825706 -108.874844 61 31351ft 467kts
06-Jul-18 18:13 37.882197 -108.728385 60 31346ft 466kts
06-Jul-18 18:14 37.937041 -108.580675 64 31346ft 467kts
06-Jul-18 18:15 37.986335 -108.428989 64 31346ft 467kts
06-Jul-18 18:16 38.032651 -108.286375 64 31342ft 466kts
06-Jul-18 18:17 38.081458 -108.136028 64 31365ft 466kts
06-Jul-18 18:18 38.122373 -108.010849 64 31374ft 464kts
06-Jul-18 18:19 38.169678 -107.868861 63 31327ft 459kts
06-Jul-18 18:20 38.219241 -107.718977 63 31354ft 463kts
06-Jul-18 18:21 38.269133 -107.568469 63 31318ft 462kts
06-Jul-18 18:22 38.318986 -107.418427 63 31320ft 462kts
06-Jul-18 18:23 38.365473 -107.278648 64 31418ft 461kts
06-Jul-18 18:24 38.415015 -107.129556 63 31538ft 460kts
06-Jul-18 18:25 38.472968 -106.986712 48 31540ft 452kts
06-Jul-18 18:26 38.554722 -106.870334 41 31524ft 441kts
06-Jul-18 18:27 38.641995 -106.760577 41 31537ft 442kts
06-Jul-18 18:28 38.729185 -106.651022 41 31535ft 442kts
06-Jul-18 18:29 38.816403 -106.541506 43 29887ft 441kts
06-Jul-18 18:30 38.899720 -106.426097 44 27814ft 445kts
06-Jul-18 18:31 38.975523 -106.320494 44 25861ft 431kts
06-Jul-18 18:32 39.053175 -106.211504 44 23810ft 417kts
06-Jul-18 18:33 39.127791 -106.111111 53 22690ft 415kts
06-Jul-18 18:34 39.180340 -105.980508 63 21311ft 409kts
06-Jul-18 18:35 39.228309 -105.854941 63 19670ft 389kts
06-Jul-18 18:36 39.277207 -105.731273 63 17977ft 394kts
06-Jul-18 18:37 39.329417 -105.610634 58 17467ft 388kts
06-Jul-18 18:38 39.384014 -105.496669 57 17509ft 344kts
06-Jul-18 18:39 39.431098 -105.399606 54 17440ft 315kts
06-Jul-18 18:40 39.478013 -105.312936 54 16458ft 314kts
06-Jul-18 18:41 39.527949 -105.223369 55 15484ft 311kts
06-Jul-18 18:42 39.580194 -105.132346 55 14995ft 329kts
06-Jul-18 18:43 39.629551 -105.042495 56 13990ft 322kts
06-Jul-18 18:44 39.679667 -104.952104 55 12992ft 304kts
06-Jul-18 18:45 39.729107 -104.862096 55 11926ft 304kts
06-Jul-18 18:46 39.795358 -104.808639 1 11022ft 289kts
06-Jul-18 18:47 39.865587 -104.840116 338 10983ft 266kts
06-Jul-18 18:48 39.935586 -104.863643 2 10997ft 264kts
06-Jul-18 18:49 40.008757 -104.862154 2 10333ft 264kts
06-Jul-18 18:50 40.063178 -104.822635 85 8344ft 233kts
06-Jul-18 18:51 40.063464 -104.744200 108 7073ft 196kts
06-Jul-18 18:52 40.035155 -104.690513 162 7009ft 191kts
06-Jul-18 18:53 39.983030 -104.686750 178 6931ft 177kts
06-Jul-18 18:54 39.939436 -104.686366 176 6189ft 158kts
06-Jul-18 18:55 39.895343 -104.686835 177 5356ft 156kts
06-Jul-18 18:56 39.869230 -104.687132 181 5323ft 24kts
06-Jul-18 18:57 39.868241 -104.685608 90 5323ft 0kts
06-Jul-18 18:58 39.868241 -104.685608 90 5323ft 0kts
06-Jul-18 18:59 39.868241 -104.685608 90 5323ft 0kts
06-Jul-18 19:00 39.868225 -104.685185 108 5323ft 0kts
06-Jul-18 19:01 39.865298 -104.685047 180 5323ft 13kts
06-Jul-18 19:02 39.861282 -104.685101 179 5323ft 15kts
06-Jul-18 19:03 39.856945 -104.684814 114 5323ft 16kts
06-Jul-18 19:04 39.856647 -104.678670 88 5323ft 17kts
06-Jul-18 19:05 39.856891 -104.672476 51 5323ft 14kts

Navigation Log

Ident Type
Flight plan parsing failed, navigation log unavailable